sensor_id;sensor_type;location;lat;lon;timestamp;P1;durP1;ratioP1;P2;durP2;ratioP2
73951;SDS011;62304;47.662;18.324;2023-07-31T00:01:32;9.13;;;5.07;;
73951;SDS011;62304;47.662;18.324;2023-07-31T00:04:35;9.55;;;5.00;;
73951;SDS011;62304;47.662;18.324;2023-07-31T00:07:38;9.35;;;5.72;;
73951;SDS011;62304;47.662;18.324;2023-07-31T00:10:41;9.23;;;5.10;;
73951;SDS011;62304;47.662;18.324;2023-07-31T00:13:44;11.80;;;5.87;;
73951;SDS011;62304;47.662;18.324;2023-07-31T00:16:47;8.07;;;4.50;;
73951;SDS011;62304;47.662;18.324;2023-07-31T00:19:53;9.95;;;5.07;;
73951;SDS011;62304;47.662;18.324;2023-07-31T00:22:56;9.10;;;4.65;;
73951;SDS011;62304;47.662;18.324;2023-07-31T00:25:59;9.00;;;4.20;;
73951;SDS011;62304;47.662;18.324;2023-07-31T00:29:03;6.93;;;3.80;;
73951;SDS011;62304;47.662;18.324;2023-07-31T00:32:06;5.97;;;3.60;;
73951;SDS011;62304;47.662;18.324;2023-07-31T00:35:11;6.72;;;3.83;;
73951;SDS011;62304;47.662;18.324;2023-07-31T00:38:14;7.47;;;3.75;;
73951;SDS011;62304;47.662;18.324;2023-07-31T00:41:17;5.95;;;3.37;;
73951;SDS011;62304;47.662;18.324;2023-07-31T00:44:20;7.83;;;3.17;;
73951;SDS011;62304;47.662;18.324;2023-07-31T00:47:23;6.37;;;3.47;;
73951;SDS011;62304;47.662;18.324;2023-07-31T00:50:27;11.23;;;3.40;;
73951;SDS011;62304;47.662;18.324;2023-07-31T00:53:33;5.68;;;3.55;;
73951;SDS011;62304;47.662;18.324;2023-07-31T00:56:36;7.03;;;3.67;;
73951;SDS011;62304;47.662;18.324;2023-07-31T00:59:39;10.33;;;3.07;;
73951;SDS011;62304;47.662;18.324;2023-07-31T01:02:42;5.50;;;3.07;;
73951;SDS011;62304;47.662;18.324;2023-07-31T01:05:54;7.87;;;3.25;;
73951;SDS011;62304;47.662;18.324;2023-07-31T01:12:40;6.87;;;3.05;;
73951;SDS011;62304;47.662;18.324;2023-07-31T01:15:44;5.40;;;3.20;;
73951;SDS011;62304;47.662;18.324;2023-07-31T01:18:48;5.80;;;2.97;;
73951;SDS011;62304;47.662;18.324;2023-07-31T01:29:20;6.70;;;2.85;;
73951;SDS011;62304;47.662;18.324;2023-07-31T01:32:29;4.73;;;2.70;;
73951;SDS011;62304;47.662;18.324;2023-07-31T01:35:35;6.57;;;3.10;;
73951;SDS011;62304;47.662;18.324;2023-07-31T01:38:39;5.53;;;2.72;;
73951;SDS011;62304;47.662;18.324;2023-07-31T01:41:43;7.85;;;3.22;;
73951;SDS011;62304;47.662;18.324;2023-07-31T01:44:46;6.75;;;3.17;;
73951;SDS011;62304;47.662;18.324;2023-07-31T01:47:51;6.87;;;2.83;;
73951;SDS011;62304;47.662;18.324;2023-07-31T01:50:54;5.13;;;2.90;;
73951;SDS011;62304;47.662;18.324;2023-07-31T01:53:58;6.00;;;3.10;;
73951;SDS011;62304;47.662;18.324;2023-07-31T01:57:01;5.85;;;3.05;;
73951;SDS011;62304;47.662;18.324;2023-07-31T02:00:04;7.85;;;3.00;;
73951;SDS011;62304;47.662;18.324;2023-07-31T02:03:12;6.63;;;3.50;;
73951;SDS011;62304;47.662;18.324;2023-07-31T02:06:16;5.73;;;2.67;;
73951;SDS011;62304;47.662;18.324;2023-07-31T02:09:19;5.45;;;2.60;;
73951;SDS011;62304;47.662;18.324;2023-07-31T02:12:22;7.30;;;2.40;;
73951;SDS011;62304;47.662;18.324;2023-07-31T02:15:25;12.73;;;3.08;;
73951;SDS011;62304;47.662;18.324;2023-07-31T02:18:28;8.03;;;3.10;;
73951;SDS011;62304;47.662;18.324;2023-07-31T02:21:31;6.00;;;2.90;;
73951;SDS011;62304;47.662;18.324;2023-07-31T02:24:34;8.52;;;3.03;;
73951;SDS011;62304;47.662;18.324;2023-07-31T02:27:37;4.53;;;2.30;;
73951;SDS011;62304;47.662;18.324;2023-07-31T02:30:43;5.78;;;2.45;;
73951;SDS011;62304;47.662;18.324;2023-07-31T02:33:46;6.50;;;2.57;;
73951;SDS011;62304;47.662;18.324;2023-07-31T02:36:49;5.17;;;2.47;;
73951;SDS011;62304;47.662;18.324;2023-07-31T02:39:52;6.15;;;2.92;;
73951;SDS011;62304;47.662;18.324;2023-07-31T02:42:55;5.68;;;2.50;;
73951;SDS011;62304;47.662;18.324;2023-07-31T02:45:59;6.43;;;2.90;;
73951;SDS011;62304;47.662;18.324;2023-07-31T02:49:02;5.70;;;2.60;;
73951;SDS011;62304;47.662;18.324;2023-07-31T02:52:05;7.07;;;3.07;;
73951;SDS011;62304;47.662;18.324;2023-07-31T02:55:09;8.75;;;2.90;;
73951;SDS011;62304;47.662;18.324;2023-07-31T02:58:12;5.85;;;2.85;;
73951;SDS011;62304;47.662;18.324;2023-07-31T03:01:16;7.15;;;2.80;;
73951;SDS011;62304;47.662;18.324;2023-07-31T03:04:18;6.80;;;2.87;;
73951;SDS011;62304;47.662;18.324;2023-07-31T03:07:22;8.03;;;3.40;;
73951;SDS011;62304;47.662;18.324;2023-07-31T03:10:25;5.82;;;2.70;;
73951;SDS011;62304;47.662;18.324;2023-07-31T03:13:28;8.25;;;3.30;;
73951;SDS011;62304;47.662;18.324;2023-07-31T03:16:31;7.07;;;2.97;;
73951;SDS011;62304;47.662;18.324;2023-07-31T03:19:36;6.00;;;3.10;;
73951;SDS011;62304;47.662;18.324;2023-07-31T03:22:39;9.20;;;3.53;;
73951;SDS011;62304;47.662;18.324;2023-07-31T03:25:54;6.62;;;3.17;;
73951;SDS011;62304;47.662;18.324;2023-07-31T03:29:02;6.18;;;3.10;;
73951;SDS011;62304;47.662;18.324;2023-07-31T03:32:06;6.78;;;3.17;;
73951;SDS011;62304;47.662;18.324;2023-07-31T03:35:09;12.07;;;4.60;;
73951;SDS011;62304;47.662;18.324;2023-07-31T03:38:13;6.57;;;3.30;;
73951;SDS011;62304;47.662;18.324;2023-07-31T03:41:16;6.78;;;2.97;;
73951;SDS011;62304;47.662;18.324;2023-07-31T03:44:20;7.12;;;2.70;;
73951;SDS011;62304;47.662;18.324;2023-07-31T03:47:22;6.53;;;3.15;;
73951;SDS011;62304;47.662;18.324;2023-07-31T03:50:26;7.63;;;3.20;;
73951;SDS011;62304;47.662;18.324;2023-07-31T03:53:29;6.07;;;3.03;;
73951;SDS011;62304;47.662;18.324;2023-07-31T03:56:32;5.82;;;3.12;;
73951;SDS011;62304;47.662;18.324;2023-07-31T03:59:37;9.25;;;3.08;;
73951;SDS011;62304;47.662;18.324;2023-07-31T04:02:43;9.85;;;3.33;;
73951;SDS011;62304;47.662;18.324;2023-07-31T04:05:47;6.50;;;3.23;;
73951;SDS011;62304;47.662;18.324;2023-07-31T04:08:49;6.67;;;3.30;;
73951;SDS011;62304;47.662;18.324;2023-07-31T04:11:52;7.25;;;3.20;;
73951;SDS011;62304;47.662;18.324;2023-07-31T04:14:55;5.82;;;2.85;;
73951;SDS011;62304;47.662;18.324;2023-07-31T04:17:58;5.97;;;2.97;;
73951;SDS011;62304;47.662;18.324;2023-07-31T04:21:01;5.90;;;3.23;;
73951;SDS011;62304;47.662;18.324;2023-07-31T04:24:05;6.43;;;3.10;;
73951;SDS011;62304;47.662;18.324;2023-07-31T04:27:07;8.27;;;3.35;;
73951;SDS011;62304;47.662;18.324;2023-07-31T04:30:11;6.05;;;3.78;;
73951;SDS011;62304;47.662;18.324;2023-07-31T04:33:13;7.20;;;3.50;;
73951;SDS011;62304;47.662;18.324;2023-07-31T04:36:17;7.10;;;3.63;;
73951;SDS011;62304;47.662;18.324;2023-07-31T04:39:20;5.83;;;3.07;;
73951;SDS011;62304;47.662;18.324;2023-07-31T04:42:23;7.72;;;3.40;;
73951;SDS011;62304;47.662;18.324;2023-07-31T04:45:26;7.72;;;3.42;;
73951;SDS011;62304;47.662;18.324;2023-07-31T04:48:29;7.28;;;3.60;;
73951;SDS011;62304;47.662;18.324;2023-07-31T04:51:32;5.73;;;3.00;;
73951;SDS011;62304;47.662;18.324;2023-07-31T04:54:35;5.97;;;2.80;;
73951;SDS011;62304;47.662;18.324;2023-07-31T04:57:38;7.47;;;4.00;;
73951;SDS011;62304;47.662;18.324;2023-07-31T05:00:41;6.35;;;2.92;;
73951;SDS011;62304;47.662;18.324;2023-07-31T05:03:44;5.60;;;3.10;;
73951;SDS011;62304;47.662;18.324;2023-07-31T05:06:48;6.30;;;3.40;;
73951;SDS011;62304;47.662;18.324;2023-07-31T05:09:50;6.07;;;3.00;;
73951;SDS011;62304;47.662;18.324;2023-07-31T05:12:54;7.95;;;3.20;;
73951;SDS011;62304;47.662;18.324;2023-07-31T05:15:56;6.45;;;3.17;;
73951;SDS011;62304;47.662;18.324;2023-07-31T05:19:04;6.57;;;3.20;;
73951;SDS011;62304;47.662;18.324;2023-07-31T05:22:06;6.97;;;3.13;;
73951;SDS011;62304;47.662;18.324;2023-07-31T05:25:09;6.73;;;3.87;;
73951;SDS011;62304;47.662;18.324;2023-07-31T05:28:12;7.55;;;3.33;;
73951;SDS011;62304;47.662;18.324;2023-07-31T05:31:16;7.18;;;3.25;;
73951;SDS011;62304;47.662;18.324;2023-07-31T05:34:18;6.57;;;3.30;;
73951;SDS011;62304;47.662;18.324;2023-07-31T05:37:22;8.67;;;3.37;;
73951;SDS011;62304;47.662;18.324;2023-07-31T05:40:25;7.10;;;3.00;;
73951;SDS011;62304;47.662;18.324;2023-07-31T05:43:28;8.00;;;2.80;;
73951;SDS011;62304;47.662;18.324;2023-07-31T05:46:31;7.32;;;2.37;;
73951;SDS011;62304;47.662;18.324;2023-07-31T05:49:34;7.00;;;2.30;;
73951;SDS011;62304;47.662;18.324;2023-07-31T05:52:37;5.20;;;2.20;;
73951;SDS011;62304;47.662;18.324;2023-07-31T05:55:40;4.37;;;1.73;;
73951;SDS011;62304;47.662;18.324;2023-07-31T05:58:43;4.45;;;1.62;;
73951;SDS011;62304;47.662;18.324;2023-07-31T06:01:46;5.55;;;1.90;;
73951;SDS011;62304;47.662;18.324;2023-07-31T06:04:50;4.80;;;1.80;;
73951;SDS011;62304;47.662;18.324;2023-07-31T06:07:53;5.23;;;1.70;;
73951;SDS011;62304;47.662;18.324;2023-07-31T06:10:59;6.17;;;2.07;;
73951;SDS011;62304;47.662;18.324;2023-07-31T06:14:02;5.03;;;1.85;;
73951;SDS011;62304;47.662;18.324;2023-07-31T06:17:05;5.37;;;2.00;;
73951;SDS011;62304;47.662;18.324;2023-07-31T06:20:08;4.20;;;1.90;;
73951;SDS011;62304;47.662;18.324;2023-07-31T06:23:13;6.73;;;1.70;;
73951;SDS011;62304;47.662;18.324;2023-07-31T06:26:15;5.87;;;2.00;;
73951;SDS011;62304;47.662;18.324;2023-07-31T06:29:19;6.05;;;1.73;;
73951;SDS011;62304;47.662;18.324;2023-07-31T06:32:21;8.75;;;2.10;;
73951;SDS011;62304;47.662;18.324;2023-07-31T06:35:25;5.22;;;1.75;;
73951;SDS011;62304;47.662;18.324;2023-07-31T06:38:28;5.07;;;1.80;;
73951;SDS011;62304;47.662;18.324;2023-07-31T06:41:31;4.57;;;1.67;;
73951;SDS011;62304;47.662;18.324;2023-07-31T06:44:36;6.10;;;1.90;;
73951;SDS011;62304;47.662;18.324;2023-07-31T06:47:39;4.75;;;1.65;;
73951;SDS011;62304;47.662;18.324;2023-07-31T06:50:42;5.90;;;1.60;;
73951;SDS011;62304;47.662;18.324;2023-07-31T06:53:45;5.27;;;1.70;;
73951;SDS011;62304;47.662;18.324;2023-07-31T06:56:48;5.37;;;1.67;;
73951;SDS011;62304;47.662;18.324;2023-07-31T06:59:51;5.28;;;1.45;;
73951;SDS011;62304;47.662;18.324;2023-07-31T07:02:54;4.15;;;1.27;;
73951;SDS011;62304;47.662;18.324;2023-07-31T07:05:59;4.65;;;1.60;;
73951;SDS011;62304;47.662;18.324;2023-07-31T07:09:02;4.20;;;1.60;;
73951;SDS011;62304;47.662;18.324;2023-07-31T07:12:06;4.53;;;1.50;;
73951;SDS011;62304;47.662;18.324;2023-07-31T07:15:09;4.07;;;1.50;;
73951;SDS011;62304;47.662;18.324;2023-07-31T07:18:12;4.10;;;1.40;;
73951;SDS011;62304;47.662;18.324;2023-07-31T07:21:16;4.28;;;1.58;;
73951;SDS011;62304;47.662;18.324;2023-07-31T07:24:20;6.13;;;1.60;;
73951;SDS011;62304;47.662;18.324;2023-07-31T07:27:23;7.30;;;1.40;;
73951;SDS011;62304;47.662;18.324;2023-07-31T07:30:26;3.97;;;1.48;;
73951;SDS011;62304;47.662;18.324;2023-07-31T07:33:29;5.45;;;1.98;;
73951;SDS011;62304;47.662;18.324;2023-07-31T07:36:32;5.57;;;1.80;;
73951;SDS011;62304;47.662;18.324;2023-07-31T07:39:35;5.80;;;1.43;;
73951;SDS011;62304;47.662;18.324;2023-07-31T07:42:38;4.70;;;1.70;;
73951;SDS011;62304;47.662;18.324;2023-07-31T07:45:41;5.40;;;1.95;;
73951;SDS011;62304;47.662;18.324;2023-07-31T07:48:44;5.78;;;1.42;;
73951;SDS011;62304;47.662;18.324;2023-07-31T07:51:48;4.30;;;1.80;;
73951;SDS011;62304;47.662;18.324;2023-07-31T07:54:52;6.37;;;1.60;;
73951;SDS011;62304;47.662;18.324;2023-07-31T07:57:55;6.20;;;1.77;;
73951;SDS011;62304;47.662;18.324;2023-07-31T08:00:58;5.43;;;1.90;;
73951;SDS011;62304;47.662;18.324;2023-07-31T08:04:01;5.28;;;1.52;;
73951;SDS011;62304;47.662;18.324;2023-07-31T08:07:05;4.53;;;1.90;;
73951;SDS011;62304;47.662;18.324;2023-07-31T08:10:08;6.77;;;1.40;;
73951;SDS011;62304;47.662;18.324;2023-07-31T08:13:11;5.20;;;1.60;;
73951;SDS011;62304;47.662;18.324;2023-07-31T08:16:14;3.70;;;1.42;;
73951;SDS011;62304;47.662;18.324;2023-07-31T08:19:19;4.78;;;1.50;;
73951;SDS011;62304;47.662;18.324;2023-07-31T08:22:23;4.43;;;1.52;;
73951;SDS011;62304;47.662;18.324;2023-07-31T08:25:26;5.33;;;1.73;;
73951;SDS011;62304;47.662;18.324;2023-07-31T08:28:29;4.80;;;1.70;;
73951;SDS011;62304;47.662;18.324;2023-07-31T08:31:32;4.87;;;1.80;;
73951;SDS011;62304;47.662;18.324;2023-07-31T08:34:35;3.45;;;1.50;;
73951;SDS011;62304;47.662;18.324;2023-07-31T08:37:43;4.03;;;1.45;;
73951;SDS011;62304;47.662;18.324;2023-07-31T08:40:47;6.13;;;1.80;;
73951;SDS011;62304;47.662;18.324;2023-07-31T08:43:49;5.77;;;1.50;;
73951;SDS011;62304;47.662;18.324;2023-07-31T08:46:55;4.65;;;1.87;;
73951;SDS011;62304;47.662;18.324;2023-07-31T08:49:58;6.72;;;1.40;;
73951;SDS011;62304;47.662;18.324;2023-07-31T08:53:03;5.87;;;1.62;;
73951;SDS011;62304;47.662;18.324;2023-07-31T08:56:06;6.00;;;1.90;;
73951;SDS011;62304;47.662;18.324;2023-07-31T08:59:09;5.30;;;1.60;;
73951;SDS011;62304;47.662;18.324;2023-07-31T09:02:16;5.90;;;1.33;;
73951;SDS011;62304;47.662;18.324;2023-07-31T09:05:21;4.18;;;1.42;;
73951;SDS011;62304;47.662;18.324;2023-07-31T09:08:25;4.90;;;1.50;;
73951;SDS011;62304;47.662;18.324;2023-07-31T09:11:33;5.23;;;1.53;;
73951;SDS011;62304;47.662;18.324;2023-07-31T09:14:35;4.87;;;1.40;;
73951;SDS011;62304;47.662;18.324;2023-07-31T09:17:41;4.37;;;1.48;;
73951;SDS011;62304;47.662;18.324;2023-07-31T09:20:44;4.70;;;1.62;;
73951;SDS011;62304;47.662;18.324;2023-07-31T09:23:47;8.27;;;1.40;;
73951;SDS011;62304;47.662;18.324;2023-07-31T09:26:50;5.13;;;1.40;;
73951;SDS011;62304;47.662;18.324;2023-07-31T09:30:00;4.20;;;1.40;;
73951;SDS011;62304;47.662;18.324;2023-07-31T09:33:03;5.55;;;1.83;;
73951;SDS011;62304;47.662;18.324;2023-07-31T09:36:10;5.95;;;1.50;;
73951;SDS011;62304;47.662;18.324;2023-07-31T09:39:15;4.62;;;1.45;;
73951;SDS011;62304;47.662;18.324;2023-07-31T09:42:26;5.20;;;1.40;;
73951;SDS011;62304;47.662;18.324;2023-07-31T09:45:29;4.20;;;1.50;;
73951;SDS011;62304;47.662;18.324;2023-07-31T09:48:43;3.87;;;1.45;;
73951;SDS011;62304;47.662;18.324;2023-07-31T09:51:46;5.40;;;1.48;;
73951;SDS011;62304;47.662;18.324;2023-07-31T09:54:49;6.65;;;1.33;;
73951;SDS011;62304;47.662;18.324;2023-07-31T09:57:52;5.70;;;1.40;;
73951;SDS011;62304;47.662;18.324;2023-07-31T10:00:59;5.03;;;1.43;;
73951;SDS011;62304;47.662;18.324;2023-07-31T10:04:05;6.28;;;1.73;;
73951;SDS011;62304;47.662;18.324;2023-07-31T10:07:10;5.20;;;1.20;;
73951;SDS011;62304;47.662;18.324;2023-07-31T10:10:14;4.70;;;1.30;;
73951;SDS011;62304;47.662;18.324;2023-07-31T10:13:18;5.03;;;1.50;;
73951;SDS011;62304;47.662;18.324;2023-07-31T10:16:25;3.67;;;1.27;;
73951;SDS011;62304;47.662;18.324;2023-07-31T10:19:29;4.37;;;1.33;;
73951;SDS011;62304;47.662;18.324;2023-07-31T10:22:33;4.78;;;1.25;;
73951;SDS011;62304;47.662;18.324;2023-07-31T10:25:37;4.82;;;1.40;;
73951;SDS011;62304;47.662;18.324;2023-07-31T10:28:41;4.20;;;1.40;;
73951;SDS011;62304;47.662;18.324;2023-07-31T10:31:45;3.50;;;1.13;;
73951;SDS011;62304;47.662;18.324;2023-07-31T10:34:50;4.50;;;1.20;;
73951;SDS011;62304;47.662;18.324;2023-07-31T10:37:54;4.85;;;1.23;;
73951;SDS011;62304;47.662;18.324;2023-07-31T10:41:08;4.20;;;1.30;;
73951;SDS011;62304;47.662;18.324;2023-07-31T10:44:12;5.90;;;1.57;;
73951;SDS011;62304;47.662;18.324;2023-07-31T10:47:16;5.40;;;1.70;;
73951;SDS011;62304;47.662;18.324;2023-07-31T10:50:20;5.82;;;1.67;;
73951;SDS011;62304;47.662;18.324;2023-07-31T10:53:28;5.20;;;1.48;;
73951;SDS011;62304;47.662;18.324;2023-07-31T10:56:37;4.87;;;1.55;;
73951;SDS011;62304;47.662;18.324;2023-07-31T10:59:42;4.40;;;1.70;;
73951;SDS011;62304;47.662;18.324;2023-07-31T11:02:55;3.90;;;1.60;;
73951;SDS011;62304;47.662;18.324;2023-07-31T11:06:06;5.55;;;1.77;;
73951;SDS011;62304;47.662;18.324;2023-07-31T11:09:09;6.80;;;1.60;;
73951;SDS011;62304;47.662;18.324;2023-07-31T11:12:16;6.72;;;1.60;;
73951;SDS011;62304;47.662;18.324;2023-07-31T11:15:20;7.17;;;1.90;;
73951;SDS011;62304;47.662;18.324;2023-07-31T11:18:23;6.10;;;1.50;;
73951;SDS011;62304;47.662;18.324;2023-07-31T11:21:28;3.47;;;1.40;;
73951;SDS011;62304;47.662;18.324;2023-07-31T11:24:31;4.57;;;1.77;;
73951;SDS011;62304;47.662;18.324;2023-07-31T11:27:38;5.30;;;1.40;;
73951;SDS011;62304;47.662;18.324;2023-07-31T11:30:43;3.77;;;1.40;;
73951;SDS011;62304;47.662;18.324;2023-07-31T11:33:48;3.83;;;1.40;;
73951;SDS011;62304;47.662;18.324;2023-07-31T11:36:52;8.35;;;2.03;;
73951;SDS011;62304;47.662;18.324;2023-07-31T11:39:59;5.07;;;1.50;;
73951;SDS011;62304;47.662;18.324;2023-07-31T11:43:03;5.68;;;1.45;;
73951;SDS011;62304;47.662;18.324;2023-07-31T11:46:07;5.57;;;1.73;;
73951;SDS011;62304;47.662;18.324;2023-07-31T11:49:10;4.23;;;1.63;;
73951;SDS011;62304;47.662;18.324;2023-07-31T11:52:13;5.55;;;1.70;;
73951;SDS011;62304;47.662;18.324;2023-07-31T11:55:18;4.87;;;1.55;;
73951;SDS011;62304;47.662;18.324;2023-07-31T11:58:21;4.57;;;1.58;;
73951;SDS011;62304;47.662;18.324;2023-07-31T12:01:25;5.10;;;1.80;;
73951;SDS011;62304;47.662;18.324;2023-07-31T12:04:33;4.93;;;1.73;;
73951;SDS011;62304;47.662;18.324;2023-07-31T12:07:50;5.07;;;1.33;;
73951;SDS011;62304;47.662;18.324;2023-07-31T12:10:54;4.20;;;1.50;;
73951;SDS011;62304;47.662;18.324;2023-07-31T12:14:05;4.90;;;1.48;;
73951;SDS011;62304;47.662;18.324;2023-07-31T12:17:08;6.13;;;2.00;;
73951;SDS011;62304;47.662;18.324;2023-07-31T12:20:12;7.07;;;1.60;;
73951;SDS011;62304;47.662;18.324;2023-07-31T12:23:17;4.05;;;1.60;;
73951;SDS011;62304;47.662;18.324;2023-07-31T12:26:34;4.40;;;1.60;;
73951;SDS011;62304;47.662;18.324;2023-07-31T12:29:39;6.28;;;1.77;;
73951;SDS011;62304;47.662;18.324;2023-07-31T12:32:43;3.73;;;1.50;;
73951;SDS011;62304;47.662;18.324;2023-07-31T12:35:48;4.70;;;1.60;;
73951;SDS011;62304;47.662;18.324;2023-07-31T12:38:51;4.87;;;1.90;;
73951;SDS011;62304;47.662;18.324;2023-07-31T12:41:55;3.12;;;1.40;;
73951;SDS011;62304;47.662;18.324;2023-07-31T12:44:58;4.53;;;1.40;;
73951;SDS011;62304;47.662;18.324;2023-07-31T12:48:01;4.83;;;1.53;;
73951;SDS011;62304;47.662;18.324;2023-07-31T12:51:04;3.53;;;1.33;;
73951;SDS011;62304;47.662;18.324;2023-07-31T12:54:09;4.87;;;1.62;;
73951;SDS011;62304;47.662;18.324;2023-07-31T12:57:12;3.90;;;1.45;;
73951;SDS011;62304;47.662;18.324;2023-07-31T13:00:16;3.47;;;1.40;;
73951;SDS011;62304;47.662;18.324;2023-07-31T13:03:21;6.57;;;1.87;;
73951;SDS011;62304;47.662;18.324;2023-07-31T13:06:25;3.57;;;1.50;;
73951;SDS011;62304;47.662;18.324;2023-07-31T13:09:28;4.05;;;1.50;;
73951;SDS011;62304;47.662;18.324;2023-07-31T13:12:31;3.60;;;1.40;;
73951;SDS011;62304;47.662;18.324;2023-07-31T13:15:33;3.92;;;1.52;;
73951;SDS011;62304;47.662;18.324;2023-07-31T13:18:38;5.03;;;1.87;;
73951;SDS011;62304;47.662;18.324;2023-07-31T13:21:42;5.53;;;1.80;;
73951;SDS011;62304;47.662;18.324;2023-07-31T13:24:45;5.40;;;1.60;;
73951;SDS011;62304;47.662;18.324;2023-07-31T13:27:48;5.07;;;1.80;;
73951;SDS011;62304;47.662;18.324;2023-07-31T13:30:51;3.40;;;1.50;;
73951;SDS011;62304;47.662;18.324;2023-07-31T13:33:54;4.60;;;1.63;;
73951;SDS011;62304;47.662;18.324;2023-07-31T13:37:04;3.40;;;1.30;;
73951;SDS011;62304;47.662;18.324;2023-07-31T13:40:10;6.07;;;1.62;;
73951;SDS011;62304;47.662;18.324;2023-07-31T13:43:14;7.62;;;1.40;;
73951;SDS011;62304;47.662;18.324;2023-07-31T13:46:17;4.85;;;1.42;;
73951;SDS011;62304;47.662;18.324;2023-07-31T13:49:20;5.20;;;1.40;;
73951;SDS011;62304;47.662;18.324;2023-07-31T13:52:23;4.37;;;1.23;;
73951;SDS011;62304;47.662;18.324;2023-07-31T13:55:26;6.50;;;1.83;;
73951;SDS011;62304;47.662;18.324;2023-07-31T13:58:29;4.37;;;1.45;;
73951;SDS011;62304;47.662;18.324;2023-07-31T14:01:33;4.90;;;1.10;;
73951;SDS011;62304;47.662;18.324;2023-07-31T14:04:36;3.57;;;1.30;;
73951;SDS011;62304;47.662;18.324;2023-07-31T14:07:39;5.17;;;1.40;;
73951;SDS011;62304;47.662;18.324;2023-07-31T14:10:42;3.75;;;1.30;;
73951;SDS011;62304;47.662;18.324;2023-07-31T14:13:45;6.30;;;1.85;;
73951;SDS011;62304;47.662;18.324;2023-07-31T14:16:48;7.03;;;1.83;;
73951;SDS011;62304;47.662;18.324;2023-07-31T14:19:52;5.10;;;1.80;;
73951;SDS011;62304;47.662;18.324;2023-07-31T14:22:59;3.73;;;1.20;;
73951;SDS011;62304;47.662;18.324;2023-07-31T14:26:02;4.68;;;1.70;;
73951;SDS011;62304;47.662;18.324;2023-07-31T14:29:05;5.18;;;1.50;;
73951;SDS011;62304;47.662;18.324;2023-07-31T14:32:08;4.50;;;1.40;;
73951;SDS011;62304;47.662;18.324;2023-07-31T14:35:11;4.03;;;1.57;;
73951;SDS011;62304;47.662;18.324;2023-07-31T14:38:14;4.87;;;1.50;;
73951;SDS011;62304;47.662;18.324;2023-07-31T14:41:17;4.80;;;1.40;;
73951;SDS011;62304;47.662;18.324;2023-07-31T14:44:20;4.65;;;1.77;;
73951;SDS011;62304;47.662;18.324;2023-07-31T14:47:23;5.15;;;1.40;;
73951;SDS011;62304;47.662;18.324;2023-07-31T14:50:26;6.43;;;1.50;;
73951;SDS011;62304;47.662;18.324;2023-07-31T14:53:30;4.17;;;1.40;;
73951;SDS011;62304;47.662;18.324;2023-07-31T14:56:33;6.00;;;1.70;;
73951;SDS011;62304;47.662;18.324;2023-07-31T14:59:38;6.30;;;1.48;;
73951;SDS011;62304;47.662;18.324;2023-07-31T15:02:40;4.10;;;1.50;;
73951;SDS011;62304;47.662;18.324;2023-07-31T15:05:44;4.37;;;1.40;;
73951;SDS011;62304;47.662;18.324;2023-07-31T15:08:47;4.87;;;1.63;;
73951;SDS011;62304;47.662;18.324;2023-07-31T15:11:50;4.35;;;1.27;;
73951;SDS011;62304;47.662;18.324;2023-07-31T15:14:53;4.43;;;1.42;;
73951;SDS011;62304;47.662;18.324;2023-07-31T15:17:56;4.45;;;1.48;;
73951;SDS011;62304;47.662;18.324;2023-07-31T15:20:59;5.17;;;1.73;;
73951;SDS011;62304;47.662;18.324;2023-07-31T15:24:03;9.20;;;1.63;;
73951;SDS011;62304;47.662;18.324;2023-07-31T15:27:06;3.65;;;1.48;;
73951;SDS011;62304;47.662;18.324;2023-07-31T15:30:11;3.20;;;1.30;;
73951;SDS011;62304;47.662;18.324;2023-07-31T15:33:14;4.30;;;1.60;;
73951;SDS011;62304;47.662;18.324;2023-07-31T15:36:18;4.33;;;1.60;;
73951;SDS011;62304;47.662;18.324;2023-07-31T15:39:21;4.90;;;1.50;;
73951;SDS011;62304;47.662;18.324;2023-07-31T15:42:24;4.53;;;1.48;;
73951;SDS011;62304;47.662;18.324;2023-07-31T15:45:27;5.25;;;1.50;;
73951;SDS011;62304;47.662;18.324;2023-07-31T15:48:31;6.40;;;1.80;;
73951;SDS011;62304;47.662;18.324;2023-07-31T15:51:33;4.67;;;1.30;;
73951;SDS011;62304;47.662;18.324;2023-07-31T15:54:36;4.23;;;1.27;;
73951;SDS011;62304;47.662;18.324;2023-07-31T15:57:40;5.18;;;1.60;;
73951;SDS011;62304;47.662;18.324;2023-07-31T16:00:43;7.25;;;1.80;;
73951;SDS011;62304;47.662;18.324;2023-07-31T16:03:46;4.55;;;1.30;;
73951;SDS011;62304;47.662;18.324;2023-07-31T16:06:50;6.00;;;1.40;;
73951;SDS011;62304;47.662;18.324;2023-07-31T16:09:53;4.83;;;1.40;;
73951;SDS011;62304;47.662;18.324;2023-07-31T16:12:56;4.03;;;1.35;;
73951;SDS011;62304;47.662;18.324;2023-07-31T16:15:59;4.72;;;1.70;;
73951;SDS011;62304;47.662;18.324;2023-07-31T16:19:02;5.70;;;1.42;;
73951;SDS011;62304;47.662;18.324;2023-07-31T16:22:07;4.17;;;1.67;;
73951;SDS011;62304;47.662;18.324;2023-07-31T16:25:11;9.10;;;1.80;;
73951;SDS011;62304;47.662;18.324;2023-07-31T16:28:15;4.20;;;1.60;;
73951;SDS011;62304;47.662;18.324;2023-07-31T16:31:20;4.18;;;1.60;;
73951;SDS011;62304;47.662;18.324;2023-07-31T16:34:23;6.28;;;1.90;;
73951;SDS011;62304;47.662;18.324;2023-07-31T16:37:29;4.20;;;1.50;;
73951;SDS011;62304;47.662;18.324;2023-07-31T16:40:32;4.30;;;1.70;;
73951;SDS011;62304;47.662;18.324;2023-07-31T16:43:36;4.40;;;1.67;;
73951;SDS011;62304;47.662;18.324;2023-07-31T16:46:40;4.22;;;1.37;;
73951;SDS011;62304;47.662;18.324;2023-07-31T16:49:43;5.90;;;1.45;;
73951;SDS011;62304;47.662;18.324;2023-07-31T16:52:46;5.37;;;1.40;;
73951;SDS011;62304;47.662;18.324;2023-07-31T16:55:50;5.97;;;1.60;;
73951;SDS011;62304;47.662;18.324;2023-07-31T16:58:54;5.90;;;1.67;;
73951;SDS011;62304;47.662;18.324;2023-07-31T17:01:57;5.80;;;2.10;;
73951;SDS011;62304;47.662;18.324;2023-07-31T17:05:02;6.55;;;1.92;;
73951;SDS011;62304;47.662;18.324;2023-07-31T17:08:06;5.63;;;1.77;;
73951;SDS011;62304;47.662;18.324;2023-07-31T17:11:09;3.97;;;1.27;;
73951;SDS011;62304;47.662;18.324;2023-07-31T17:14:13;5.45;;;1.48;;
73951;SDS011;62304;47.662;18.324;2023-07-31T17:17:18;4.85;;;1.73;;
73951;SDS011;62304;47.662;18.324;2023-07-31T17:20:25;5.43;;;1.40;;
73951;SDS011;62304;47.662;18.324;2023-07-31T17:23:29;5.60;;;1.73;;
73951;SDS011;62304;47.662;18.324;2023-07-31T17:26:32;7.73;;;1.50;;
73951;SDS011;62304;47.662;18.324;2023-07-31T17:29:36;6.12;;;1.40;;
73951;SDS011;62304;47.662;18.324;2023-07-31T17:32:39;5.60;;;1.50;;
73951;SDS011;62304;47.662;18.324;2023-07-31T17:35:43;5.62;;;1.40;;
73951;SDS011;62304;47.662;18.324;2023-07-31T17:38:46;6.03;;;1.80;;
73951;SDS011;62304;47.662;18.324;2023-07-31T17:41:51;4.57;;;1.60;;
73951;SDS011;62304;47.662;18.324;2023-07-31T17:44:54;3.83;;;1.30;;
73951;SDS011;62304;47.662;18.324;2023-07-31T17:47:57;5.55;;;1.30;;
73951;SDS011;62304;47.662;18.324;2023-07-31T17:51:01;6.87;;;1.83;;
73951;SDS011;62304;47.662;18.324;2023-07-31T17:54:05;9.80;;;1.70;;
73951;SDS011;62304;47.662;18.324;2023-07-31T17:57:11;7.20;;;1.90;;
73951;SDS011;62304;47.662;18.324;2023-07-31T18:00:14;6.22;;;1.90;;
73951;SDS011;62304;47.662;18.324;2023-07-31T18:03:19;4.72;;;1.62;;
73951;SDS011;62304;47.662;18.324;2023-07-31T18:06:23;6.03;;;1.60;;
73951;SDS011;62304;47.662;18.324;2023-07-31T18:09:28;6.90;;;1.70;;
73951;SDS011;62304;47.662;18.324;2023-07-31T18:12:31;6.77;;;1.73;;
73951;SDS011;62304;47.662;18.324;2023-07-31T18:15:36;8.35;;;1.87;;
73951;SDS011;62304;47.662;18.324;2023-07-31T18:18:39;5.93;;;1.70;;
73951;SDS011;62304;47.662;18.324;2023-07-31T18:21:43;13.10;;;2.12;;